Time;durP1;ratioP1;P1;durP2;ratioP2;P2;SDS_P1;SDS_P2;PMS_P1;PMS_P2;Temp;Humidity;BMP_temperature;BMP_pressure;BME280_temperature;BME280_humidity;BME280_pressure;Samples;Min_cycle;Max_cycle;Signal;HPM_P1;HPM_P2
2022/10/29 00:01:30;;;;;;;8.98;4.25;;;;;;;7.72;71.91;100573.38;4918141;29;20114;-90
2022/10/29 00:03:55;;;;;;;6.20;4.22;;;;;;;7.62;72.06;100565.00;4903700;29;20030;-91
2022/10/29 00:06:21;;;;;;;5.70;3.60;;;;;;;7.68;72.06;100578.34;4897637;29;20039;-90
2022/10/29 00:08:46;;;;;;;9.02;4.38;;;;;;;7.75;71.94;100591.69;4931439;29;20027;-89
2022/10/29 00:11:17;;;;;;;8.38;3.85;;;;;;;7.77;71.87;100588.78;4887231;29;20035;-89
2022/10/29 00:13:42;;;;;;;7.07;4.13;;;;;;;7.49;72.22;100563.22;4927681;29;20038;-89
2022/10/29 00:16:11;;;;;;;7.47;4.40;;;;;;;7.58;71.88;100580.69;4906787;29;20477;-90
2022/10/29 00:18:37;;;;;;;7.68;4.30;;;;;;;7.50;72.11;100570.25;4914550;29;20028;-89
2022/10/29 00:21:04;;;;;;;6.53;3.67;;;;;;;7.51;72.02;100569.19;4910338;29;20462;-89
2022/10/29 00:23:30;;;;;;;6.75;4.63;;;;;;;7.53;72.10;100577.03;4896422;29;20035;-89
2022/10/29 00:25:59;;;;;;;7.75;4.65;;;;;;;7.58;71.81;100585.25;4895443;29;20099;-89
2022/10/29 00:28:24;;;;;;;13.75;5.80;;;;;;;7.55;71.96;100572.25;4914652;29;20036;-89
2022/10/29 00:30:50;;;;;;;12.32;4.90;;;;;;;7.52;72.12;100570.84;4903090;29;20033;-90
2022/10/29 00:33:17;;;;;;;8.23;4.28;;;;;;;7.37;72.22;100560.47;4891978;29;20031;-89
2022/10/29 00:35:53;;;;;;;8.38;3.92;;;;;;;7.21;72.47;100543.06;4900999;29;20024;-91
2022/10/29 00:38:18;;;;;;;9.15;5.97;;;;;;;7.27;72.31;100554.75;4913914;29;20482;-88
2022/10/29 00:40:44;;;;;;;13.20;8.15;;;;;;;7.27;72.55;100560.13;4901624;29;20034;-89
2022/10/29 00:43:13;;;;;;;13.10;8.35;;;;;;;7.21;72.33;100550.28;4902122;29;20031;-90
2022/10/29 00:45:40;;;;;;;10.10;7.07;;;;;;;7.28;72.43;100564.44;4910053;29;20115;-89
2022/10/29 00:48:05;;;;;;;9.70;6.95;;;;;;;7.32;72.06;100562.13;4921597;29;20038;-88
2022/10/29 00:50:31;;;;;;;8.50;6.97;;;;;;;7.31;72.11;100553.28;4889537;29;20032;-89
2022/10/29 00:52:56;;;;;;;8.88;6.57;;;;;;;7.38;72.14;100570.13;4925741;29;20031;-89
2022/10/29 00:55:22;;;;;;;11.85;7.05;;;;;;;7.38;71.87;100545.19;4912743;29;20039;-90
2022/10/29 00:57:50;;;;;;;11.35;6.53;;;;;;;7.58;71.06;100558.44;4919048;29;20032;-90
2022/10/29 01:00:16;;;;;;;9.35;5.88;;;;;;;7.58;71.31;100567.28;4918942;29;20039;-90
2022/10/29 01:02:41;;;;;;;9.63;6.60;;;;;;;7.56;70.97;100547.94;4912280;29;20413;-90
2022/10/29 01:05:07;;;;;;;9.48;6.20;;;;;;;7.76;70.73;100552.28;4919698;29;20102;-90
2022/10/29 01:07:36;;;;;;;10.20;5.70;;;;;;;7.74;70.65;100554.38;4920537;29;20039;-89
2022/10/29 01:10:01;;;;;;;10.50;6.30;;;;;;;7.42;71.16;100531.13;4912426;29;20126;-89
2022/10/29 01:12:33;;;;;;;11.02;6.05;;;;;;;7.56;71.51;100560.53;4905197;29;20042;-90
2022/10/29 01:15:16;;;;;;;8.80;4.95;;;;;;;7.47;71.28;100566.16;4940071;29;20023;-90
2022/10/29 01:17:44;;;;;;;10.10;4.70;;;;;;;7.46;71.54;100561.81;4930262;29;20410;-89
2022/10/29 01:20:31;;;;;;;5.50;4.22;;;;;;;7.30;72.00;100554.31;4945441;29;20038;-89
2022/10/29 01:23:03;;;;;;;7.63;4.70;;;;;;;7.31;72.56;100552.47;4949954;29;20118;-88
2022/10/29 01:25:42;;;;;;;8.38;5.25;;;;;;;7.17;72.62;100547.19;4941071;29;20142;-89
2022/10/29 01:28:19;;;;;;;7.68;4.85;;;;;;;7.31;72.03;100553.28;4893064;29;20033;-89
2022/10/29 01:31:16;;;;;;;7.88;4.85;;;;;;;7.38;71.84;100555.91;4937893;29;20474;-88
2022/10/29 01:33:56;;;;;;;9.85;4.53;;;;;;;7.26;72.09;100551.28;4937129;29;20386;-91
2022/10/29 01:36:30;;;;;;;8.35;4.40;;;;;;;7.21;72.26;100544.91;4927201;29;20032;-90
2022/10/29 01:39:18;;;;;;;9.23;4.53;;;;;;;7.01;72.35;100529.78;4935361;29;20517;-88
2022/10/29 01:41:49;;;;;;;10.80;4.63;;;;;;;7.01;72.34;100528.97;4925459;29;20095;-91
2022/10/29 01:44:33;;;;;;;6.40;3.83;;;;;;;7.26;71.90;100537.03;4941390;29;20082;-90
2022/10/29 01:47:03;;;;;;;8.57;4.03;;;;;;;7.12;71.95;100511.38;4940142;29;20060;-88
2022/10/29 01:49:34;;;;;;;5.40;3.83;;;;;;;7.14;72.17;100520.03;4909928;29;20035;-91
2022/10/29 01:52:00;;;;;;;13.07;4.32;;;;;;;7.25;71.79;100516.66;4913351;29;20037;-90
2022/10/29 01:54:26;;;;;;;7.85;4.07;;;;;;;7.36;71.28;100507.91;4910244;29;20074;-89
2022/10/29 01:56:55;;;;;;;8.23;3.25;;;;;;;7.60;71.53;100519.66;4907181;29;20031;-91
2022/10/29 01:59:21;;;;;;;6.68;3.17;;;;;;;7.67;71.04;100512.34;4910875;29;20417;-90
2022/10/29 02:02:00;;;;;;;5.15;3.47;;;;;;;7.66;71.38;100526.00;4898477;29;20050;-90
2022/10/29 02:04:31;;;;;;;7.45;3.65;;;;;;;7.57;71.59;100528.13;4949481;29;20090;-90
2022/10/29 02:07:06;;;;;;;8.32;3.72;;;;;;;7.45;71.30;100524.50;4935841;28;20027;-90
2022/10/29 02:09:55;;;;;;;7.82;4.25;;;;;;;7.27;71.54;100506.53;4918516;29;20023;-91
2022/10/29 02:12:24;;;;;;;6.50;3.70;;;;;;;7.26;71.55;100511.09;4922197;29;20095;-91
2022/10/29 02:14:57;;;;;;;6.32;3.85;;;;;;;7.13;71.85;100507.69;4894429;29;20016;-90
2022/10/29 02:17:23;;;;;;;6.00;4.00;;;;;;;7.23;70.89;100495.44;4904941;29;20027;-91
2022/10/29 02:19:48;;;;;;;5.05;3.17;;;;;;;7.36;71.41;100510.56;4913413;29;20126;-90
2022/10/29 02:22:13;;;;;;;10.38;4.00;;;;;;;7.32;71.47;100493.31;4921777;29;20039;-91
2022/10/29 02:24:39;;;;;;;9.63;4.03;;;;;;;7.36;71.44;100499.84;4919605;29;20039;-90
2022/10/29 02:27:04;;;;;;;6.40;3.80;;;;;;;7.27;71.40;100493.97;4901834;29;20043;-91
2022/10/29 02:29:30;;;;;;;9.18;3.70;;;;;;;7.23;71.64;100502.66;4910873;29;20537;-91
2022/10/29 02:31:55;;;;;;;5.20;3.42;;;;;;;7.12;71.60;100488.13;4896152;29;20027;-90
2022/10/29 02:34:21;;;;;;;4.80;3.22;;;;;;;7.13;71.20;100496.97;4909289;29;20024;-90
2022/10/29 02:36:46;;;;;;;5.20;3.67;;;;;;;7.10;71.62;100500.91;4912055;29;20046;-91
2022/10/29 02:39:12;;;;;;;8.90;4.18;;;;;;;7.16;71.39;100501.88;4914223;29;20081;-91
2022/10/29 02:41:37;;;;;;;6.95;3.95;;;;;;;7.09;71.34;100486.69;4912045;29;20027;-91
2022/10/29 02:44:03;;;;;;;8.65;3.88;;;;;;;7.33;70.96;100511.03;4907668;29;20027;-90
2022/10/29 02:46:29;;;;;;;6.07;3.75;;;;;;;7.29;70.91;100493.75;4907879;29;20039;-90
2022/10/29 02:48:54;;;;;;;8.88;3.65;;;;;;;7.16;71.15;100499.19;4892740;29;20028;-90
2022/10/29 02:51:20;;;;;;;6.60;3.90;;;;;;;7.18;70.84;100494.44;4896348;29;20442;-90
2022/10/29 02:53:45;;;;;;;8.02;4.07;;;;;;;7.20;71.08;100492.38;4910844;29;20035;-91
2022/10/29 02:56:11;;;;;;;6.57;3.80;;;;;;;7.15;71.47;100486.84;4923590;29;20051;-91
2022/10/29 02:58:37;;;;;;;6.93;3.95;;;;;;;7.06;71.12;100478.28;4895955;29;20074;-91
2022/10/29 03:01:03;;;;;;;5.53;4.00;;;;;;;7.14;71.01;100501.28;4930496;29;20111;-91
2022/10/29 03:03:28;;;;;;;6.90;4.13;;;;;;;6.93;70.86;100473.00;4889496;29;20067;-89
2022/10/29 03:05:54;;;;;;;6.35;3.92;;;;;;;7.04;70.83;100496.41;4918292;29;20020;-89
2022/10/29 03:08:19;;;;;;;5.55;3.63;;;;;;;7.05;71.35;100512.25;4891115;29;20031;-89
2022/10/29 03:10:45;;;;;;;7.63;4.13;;;;;;;7.04;71.07;100491.06;4892113;29;20126;-91
2022/10/29 03:13:10;;;;;;;7.70;3.70;;;;;;;7.20;71.13;100493.22;4901467;29;20030;-91
2022/10/29 03:15:36;;;;;;;8.55;3.75;;;;;;;7.30;71.33;100490.03;4908018;29;20031;-91
2022/10/29 03:18:02;;;;;;;9.77;3.83;;;;;;;7.32;70.96;100506.69;4918283;29;20034;-90
2022/10/29 03:20:27;;;;;;;14.25;4.38;;;;;;;7.18;71.60;100492.59;4902997;29;20110;-91
2022/10/29 03:22:55;;;;;;;8.93;4.20;;;;;;;7.07;70.69;100478.03;4911026;29;20087;-91
2022/10/29 03:25:21;;;;;;;7.15;4.10;;;;;;;7.11;70.25;100491.00;4901761;29;20087;-91
2022/10/29 03:27:47;;;;;;;7.68;3.70;;;;;;;6.83;70.14;100476.19;4901935;29;20020;-91
2022/10/29 03:30:13;;;;;;;5.72;3.58;;;;;;;6.97;70.62;100498.31;4920350;29;20063;-91
2022/10/29 03:32:40;;;;;;;7.97;3.42;;;;;;;6.80;70.53;100484.63;4931850;29;20030;-90
2022/10/29 03:35:07;;;;;;;6.93;4.55;;;;;;;6.66;70.65;100475.84;4904004;29;20089;-90
2022/10/29 03:37:32;;;;;;;8.77;3.95;;;;;;;6.62;71.03;100486.19;4908385;29;20034;-90
2022/10/29 03:39:57;;;;;;;6.45;3.67;;;;;;;6.49;70.89;100472.88;4906473;29;20426;-91
2022/10/29 03:42:23;;;;;;;7.18;4.57;;;;;;;6.43;71.50;100479.91;4904336;29;20019;-91
2022/10/29 03:44:48;;;;;;;5.72;3.85;;;;;;;6.54;71.31;100483.75;4917128;29;20046;-90
2022/10/29 03:47:14;;;;;;;6.32;4.10;;;;;;;6.57;70.84;100461.09;4915480;29;20051;-91
2022/10/29 03:49:43;;;;;;;6.97;3.55;;;;;;;6.65;70.81;100466.19;4911642;29;20047;-90
2022/10/29 03:52:08;;;;;;;9.82;4.45;;;;;;;6.53;71.19;100468.72;4914333;29;20078;-90
2022/10/29 03:54:34;;;;;;;7.13;4.38;;;;;;;6.59;71.49;100475.09;4903842;29;20656;-91
2022/10/29 03:56:59;;;;;;;9.98;4.40;;;;;;;6.50;71.87;100457.66;4917504;29;20502;-91
2022/10/29 03:59:25;;;;;;;8.05;4.65;;;;;;;6.65;71.49;100456.31;4918413;29;20084;-90
2022/10/29 04:01:50;;;;;;;8.10;4.25;;;;;;;6.61;71.58;100457.78;4916365;29;20051;-90
2022/10/29 04:04:16;;;;;;;9.38;4.35;;;;;;;6.61;71.75;100468.47;4902896;29;20046;-91
2022/10/29 04:06:41;;;;;;;7.65;5.13;;;;;;;6.47;71.73;100461.56;4912846;29;20035;-90
2022/10/29 04:09:07;;;;;;;8.80;4.32;;;;;;;6.42;72.05;100458.72;4904421;29;20118;-91
2022/10/29 04:11:32;;;;;;;7.53;4.63;;;;;;;6.38;72.43;100454.84;4902093;29;20082;-90
2022/10/29 04:13:58;;;;;;;13.82;4.30;;;;;;;6.47;71.47;100456.22;4918296;29;20031;-91
2022/10/29 04:16:23;;;;;;;6.47;4.35;;;;;;;6.52;72.10;100479.66;4909683;29;20123;-90
2022/10/29 04:18:49;;;;;;;6.45;4.45;;;;;;;6.31;71.77;100456.72;4915863;29;20075;-90
2022/10/29 04:21:15;;;;;;;5.97;4.22;;;;;;;6.27;71.97;100459.81;4915176;29;20027;-90
2022/10/29 04:23:40;;;;;;;5.85;4.00;;;;;;;6.30;71.96;100460.44;4901464;29;20028;-91
2022/10/29 04:26:06;;;;;;;12.57;4.85;;;;;;;6.33;72.67;100462.66;4915556;29;20035;-91
2022/10/29 04:28:31;;;;;;;6.25;4.40;;;;;;;6.35;72.63;100460.59;4922102;29;20079;-90
2022/10/29 04:30:57;;;;;;;7.18;4.22;;;;;;;6.60;72.60;100476.72;4929630;29;20027;-90
2022/10/29 04:33:22;;;;;;;9.98;4.50;;;;;;;6.44;71.55;100473.53;4927315;29;20036;-90
2022/10/29 04:35:52;;;;;;;5.90;4.22;;;;;;;6.32;71.90;100461.84;4916223;29;20026;-90
2022/10/29 04:38:17;;;;;;;9.00;4.05;;;;;;;6.35;71.07;100465.94;4910936;29;20023;-91
2022/10/29 04:40:43;;;;;;;7.40;4.20;;;;;;;6.35;70.57;100474.81;4919354;29;20034;-91
2022/10/29 04:43:08;;;;;;;16.33;4.68;;;;;;;6.06;70.94;100455.59;4912775;29;20042;-90
2022/10/29 04:45:34;;;;;;;7.15;4.15;;;;;;;5.94;71.91;100467.94;4905874;29;20043;-90
2022/10/29 04:48:03;;;;;;;11.75;4.55;;;;;;;5.97;71.23;100467.53;4927993;29;20032;-90
2022/10/29 04:50:28;;;;;;;8.68;4.90;;;;;;;5.92;71.58;100461.19;4920564;29;20034;-91
2022/10/29 04:53:01;;;;;;;8.20;5.10;;;;;;;5.88;72.71;100466.94;4908408;29;20027;-91
2022/10/29 04:55:27;;;;;;;8.48;4.95;;;;;;;5.97;71.99;100477.41;4913261;29;20038;-89
2022/10/29 04:57:52;;;;;;;10.07;4.95;;;;;;;6.13;71.44;100462.78;4919039;29;20023;-91
2022/10/29 05:00:18;;;;;;;9.80;4.75;;;;;;;6.16;71.20;100457.78;4905052;29;20035;-91
2022/10/29 05:02:48;;;;;;;8.13;4.13;;;;;;;6.36;72.65;100457.72;4917235;29;20481;-90
2022/10/29 05:05:14;;;;;;;7.78;3.67;;;;;;;6.34;73.27;100457.09;4912636;29;20482;-91
2022/10/29 05:07:42;;;;;;;5.70;3.33;;;;;;;6.52;73.19;100466.28;4913537;29;20031;-89
2022/10/29 05:10:08;;;;;;;8.00;4.97;;;;;;;6.57;72.85;100472.63;4930143;29;20028;-91
2022/10/29 05:12:33;;;;;;;7.50;4.45;;;;;;;6.64;72.74;100469.91;4916133;29;20190;-90
2022/10/29 05:14:59;;;;;;;7.65;3.60;;;;;;;6.52;73.03;100467.09;4909053;29;20035;-91
2022/10/29 05:17:24;;;;;;;8.80;3.88;;;;;;;6.53;72.52;100471.41;4919442;29;20020;-91
2022/10/29 05:19:50;;;;;;;9.02;4.00;;;;;;;6.54;72.41;100488.31;4909461;29;20046;-91
2022/10/29 05:22:15;;;;;;;8.38;5.03;;;;;;;6.42;71.65;100478.25;4910821;29;20027;-91
2022/10/29 05:24:41;;;;;;;9.93;4.57;;;;;;;6.51;71.77;100505.59;4911842;29;20042;-91
2022/10/29 05:27:06;;;;;;;6.70;4.10;;;;;;;6.44;71.73;100483.41;4921745;29;20118;-89
2022/10/29 05:29:32;;;;;;;10.25;5.82;;;;;;;6.34;71.15;100483.84;4895142;29;20402;-92
2022/10/29 05:31:57;;;;;;;8.85;5.25;;;;;;;6.53;71.03;100505.38;4906120;29;20027;-90
2022/10/29 05:34:23;;;;;;;12.63;5.53;;;;;;;6.42;70.73;100498.84;4916597;29;20023;-92
2022/10/29 05:36:48;;;;;;;9.10;4.72;;;;;;;6.37;71.01;100493.31;4919457;29;20019;-91
2022/10/29 05:39:14;;;;;;;8.80;4.38;;;;;;;6.51;70.54;100515.47;4926396;29;20047;-91
2022/10/29 05:41:39;;;;;;;8.80;4.50;;;;;;;6.33;70.65;100492.94;4904192;29;20031;-91
2022/10/29 05:44:05;;;;;;;10.88;4.88;;;;;;;6.30;70.76;100490.66;4904396;29;20106;-89
2022/10/29 05:46:34;;;;;;;8.68;4.47;;;;;;;6.52;70.25;100503.75;4895604;29;20055;-91
2022/10/29 05:48:59;;;;;;;8.27;4.45;;;;;;;6.55;70.12;100493.41;4906751;29;20075;-91
2022/10/29 05:51:24;;;;;;;15.18;4.45;;;;;;;6.58;70.83;100503.72;4909960;29;20032;-91
2022/10/29 05:53:50;;;;;;;10.65;4.80;;;;;;;6.66;70.47;100510.66;4921953;29;20035;-92
2022/10/29 05:56:17;;;;;;;8.93;5.38;;;;;;;6.64;70.59;100493.97;4915829;29;20046;-91
2022/10/29 05:58:42;;;;;;;15.82;6.00;;;;;;;6.82;70.04;100515.50;4921186;29;20027;-91
2022/10/29 06:01:08;;;;;;;13.05;5.63;;;;;;;6.85;70.13;100499.03;4909157;29;20031;-92
2022/10/29 06:03:33;;;;;;;8.85;4.93;;;;;;;6.91;70.87;100496.50;4903654;29;20028;-92
2022/10/29 06:05:59;;;;;;;10.60;5.20;;;;;;;7.01;70.63;100494.16;4911118;29;20031;-91
2022/10/29 06:08:24;;;;;;;12.93;6.30;;;;;;;7.11;69.69;100510.56;4904184;29;20039;-91
2022/10/29 06:10:50;;;;;;;12.23;5.43;;;;;;;7.13;69.94;100505.81;4902809;29;20466;-93
2022/10/29 06:13:19;;;;;;;8.77;5.53;;;;;;;7.23;69.62;100510.69;4912192;29;20035;-91
2022/10/29 06:15:45;;;;;;;11.07;6.07;;;;;;;7.41;69.29;100526.84;4918655;29;20062;-91
2022/10/29 06:18:11;;;;;;;11.98;5.28;;;;;;;7.47;69.16;100515.25;4900066;29;20139;-90
2022/10/29 06:20:37;;;;;;;8.60;5.00;;;;;;;7.59;69.23;100515.31;4905337;29;20035;-91
2022/10/29 06:23:02;;;;;;;9.30;3.60;;;;;;;7.88;68.75;100523.72;4905908;29;20179;-91
2022/10/29 06:25:28;;;;;;;6.32;3.70;;;;;;;7.97;68.21;100517.03;4900456;29;20031;-90
2022/10/29 06:28:00;;;;;;;9.57;4.65;;;;;;;7.99;69.04;100527.50;4919995;29;20031;-90
2022/10/29 06:30:25;;;;;;;8.20;4.40;;;;;;;7.96;69.05;100522.59;4904713;29;20051;-93
2022/10/29 06:32:51;;;;;;;7.85;4.07;;;;;;;8.10;68.18;100524.09;4904236;29;20039;-92
2022/10/29 06:35:16;;;;;;;90.05;9.23;;;;;;;8.13;68.82;100512.91;4904920;29;20083;-93
2022/10/29 06:37:42;;;;;;;8.98;4.57;;;;;;;8.37;68.31;100532.66;4906472;29;20038;-93
2022/10/29 06:40:08;;;;;;;12.02;5.00;;;;;;;8.37;67.68;100511.19;4898324;29;20065;-92
2022/10/29 06:42:36;;;;;;;16.55;6.68;;;;;;;8.69;67.09;100521.75;4926978;29;20031;-91
2022/10/29 06:45:01;;;;;;;8.65;4.53;;;;;;;8.67;66.70;100513.09;4917619;29;20119;-92
2022/10/29 06:47:27;;;;;;;9.52;4.95;;;;;;;8.86;66.79;100520.06;4888268;29;20086;-92
2022/10/29 06:49:52;;;;;;;12.32;4.68;;;;;;;9.02;65.56;100521.25;4903622;29;20391;-92
2022/10/29 06:52:20;;;;;;;10.63;4.70;;;;;;;9.09;65.83;100530.06;4904394;29;20447;-92
2022/10/29 06:54:46;;;;;;;10.57;4.32;;;;;;;9.25;65.18;100517.00;4909470;29;20028;-92
2022/10/29 06:57:11;;;;;;;11.45;5.10;;;;;;;9.30;64.79;100517.13;4915508;29;20094;-90
2022/10/29 06:59:36;;;;;;;8.52;5.72;;;;;;;9.45;65.16;100520.16;4927787;29;20043;-91
2022/10/29 07:02:02;;;;;;;7.90;4.20;;;;;;;9.75;63.97;100546.13;4907605;29;20438;-90
2022/10/29 07:04:28;;;;;;;11.60;4.03;;;;;;;9.79;63.37;100524.97;4904962;29;20067;-90
2022/10/29 07:06:55;;;;;;;12.63;4.55;;;;;;;9.94;63.00;100524.50;4916606;29;20050;-91
2022/10/29 07:09:21;;;;;;;10.23;4.38;;;;;;;10.21;62.60;100552.53;4906643;29;20501;-91
2022/10/29 07:11:46;;;;;;;12.18;5.82;;;;;;;10.24;62.38;100543.16;4907036;29;20042;-90
2022/10/29 07:14:12;;;;;;;9.27;4.72;;;;;;;10.36;61.72;100535.91;4938939;29;20090;-92
2022/10/29 07:16:37;;;;;;;8.85;5.38;;;;;;;10.47;62.19;100540.44;4938002;29;20438;-90
2022/10/29 07:19:03;;;;;;;7.85;4.47;;;;;;;10.46;62.36;100535.31;4922512;29;20050;-94
2022/10/29 07:21:32;;;;;;;16.63;5.47;;;;;;;10.59;62.03;100537.72;4915762;29;20035;-95
2022/10/29 07:24:05;;;;;;;9.75;4.55;;;;;;;10.48;62.36;100530.50;4909373;29;20386;-91
2022/10/29 07:26:30;;;;;;;6.82;3.83;;;;;;;10.48;62.20;100511.66;4894027;29;20035;-91
2022/10/29 07:28:56;;;;;;;6.50;3.55;;;;;;;10.61;61.98;100522.13;4918892;29;20119;-91
2022/10/29 07:31:22;;;;;;;5.53;4.03;;;;;;;10.71;61.71;100510.75;4902907;29;20505;-91
2022/10/29 07:33:47;;;;;;;9.63;4.00;;;;;;;10.96;61.02;100521.16;4903490;29;20040;-91
2022/10/29 07:36:18;;;;;;;16.05;6.45;;;;;;;11.05;60.96;100530.47;4903271;29;20022;-93
2022/10/29 07:38:43;;;;;;;10.88;6.47;;;;;;;11.18;60.65;100515.06;4903695;29;20399;-92
2022/10/29 07:41:09;;;;;;;11.23;5.68;;;;;;;11.35;59.77;100506.97;4918922;29;20035;-90
2022/10/29 07:43:35;;;;;;;8.40;4.47;;;;;;;11.56;59.44;100521.59;4918716;29;20035;-89
2022/10/29 07:46:00;;;;;;;8.30;4.97;;;;;;;11.69;59.67;100524.75;4902637;29;20055;-92
2022/10/29 07:48:31;;;;;;;10.25;4.97;;;;;;;11.79;59.57;100529.50;4888400;29;20086;-91
2022/10/29 07:50:58;;;;;;;13.98;8.00;;;;;;;11.79;59.06;100512.50;4917939;29;20406;-91
2022/10/29 07:53:23;;;;;;;7.40;4.50;;;;;;;11.95;58.86;100516.25;4919528;29;20174;-92
2022/10/29 07:55:56;;;;;;;7.32;4.15;;;;;;;12.09;58.05;100515.63;4902997;29;20056;-91
2022/10/29 07:58:21;;;;;;;6.82;4.20;;;;;;;12.22;57.93;100505.53;4903922;29;20422;-91
2022/10/29 08:00:52;;;;;;;10.93;4.53;;;;;;;12.30;57.54;100496.97;4887356;29;20028;-90
2022/10/29 08:03:17;;;;;;;7.80;4.15;;;;;;;12.42;56.97;100494.16;4904716;29;20383;-92
2022/10/29 08:05:46;;;;;;;8.90;3.97;;;;;;;12.53;56.52;100494.03;4922342;29;20058;-91
2022/10/29 08:08:11;;;;;;;8.30;4.47;;;;;;;12.82;56.34;100507.25;4907354;29;20107;-91
2022/10/29 08:10:37;;;;;;;8.25;4.10;;;;;;;12.83;56.45;100495.41;4940158;29;20054;-91
2022/10/29 08:13:03;;;;;;;9.30;5.03;;;;;;;12.96;56.38;100499.56;4891536;29;20048;-92
2022/10/29 08:15:32;;;;;;;9.43;4.82;;;;;;;12.98;56.59;100485.81;4906519;29;20024;-89
2022/10/29 08:17:58;;;;;;;7.75;4.72;;;;;;;13.26;55.78;100504.44;4923071;29;20027;-90
2022/10/29 08:20:26;;;;;;;7.47;4.47;;;;;;;13.36;55.38;100500.19;4919235;29;20078;-91
2022/10/29 08:22:54;;;;;;;7.97;4.13;;;;;;;13.33;54.85;100477.19;4905268;29;20399;-91
2022/10/29 08:25:20;;;;;;;11.27;5.43;;;;;;;13.49;54.46;100483.53;4909071;29;20171;-91
2022/10/29 08:28:00;;;;;;;9.98;4.20;;;;;;;13.43;54.18;100476.47;4921747;29;20802;-90
2022/10/29 08:30:30;;;;;;;6.68;4.00;;;;;;;13.58;54.10;100473.03;4908487;29;20123;-94
2022/10/29 08:32:56;;;;;;;9.05;4.82;;;;;;;13.69;53.43;100470.09;4891698;29;20057;-91
2022/10/29 08:35:21;;;;;;;6.68;3.78;;;;;;;13.88;53.45;100475.91;4921704;29;20027;-91
2022/10/29 08:37:47;;;;;;;10.60;4.40;;;;;;;13.95;53.74;100470.25;4921352;29;20513;-91
2022/10/29 08:40:37;;;;;;;8.73;4.10;;;;;;;14.02;53.43;100467.31;4906345;29;20035;-90
2022/10/29 08:43:31;;;;;;;7.50;4.30;;;;;;;14.34;53.63;100497.78;4925227;29;20071;-92
2022/10/29 08:45:57;;;;;;;6.68;3.97;;;;;;;14.35;53.25;100485.03;4921875;29;20083;-93
2022/10/29 08:48:39;;;;;;;8.85;4.55;;;;;;;14.43;53.20;100473.69;4922034;29;20071;-92
2022/10/29 08:51:09;;;;;;;5.72;3.75;;;;;;;14.44;52.78;100458.22;4907128;29;20035;-92
2022/10/29 08:53:46;;;;;;;9.65;4.50;;;;;;;14.74;52.25;100477.28;4933757;29;20019;-93
2022/10/29 08:56:15;;;;;;;8.93;3.63;;;;;;;14.79;51.83;100470.25;4898444;29;20015;-91
2022/10/29 08:59:01;;;;;;;5.93;3.85;;;;;;;14.85;51.40;100459.13;4892736;29;20498;-93
2022/10/29 09:01:30;;;;;;;8.65;4.15;;;;;;;14.90;51.54;100447.47;4938829;29;20046;-92
2022/10/29 09:03:55;;;;;;;8.55;3.65;;;;;;;15.08;50.93;100454.25;4925323;29;20031;-92
2022/10/29 09:06:43;;;;;;;9.30;3.53;;;;;;;15.20;50.91;100454.00;4924778;29;20035;-92
2022/10/29 09:09:28;;;;;;;4.70;2.95;;;;;;;15.21;50.45;100442.03;4910781;29;20413;-92
2022/10/29 09:12:17;;;;;;;9.05;3.00;;;;;;;15.56;50.41;100462.88;4926310;29;20047;-91
2022/10/29 09:15:20;;;;;;;4.55;2.92;;;;;;;15.70;49.62;100463.94;4955711;28;20414;-92
2022/10/29 09:18:01;;;;;;;;;;;;;;;15.85;48.53;100465.81;4956474;29;20055;-92
2022/10/29 09:20:39;;;;;;;4.90;2.47;;;;;;;15.93;47.71;100457.09;4940384;29;19910;-92
2022/10/29 09:23:08;;;;;;;4.35;2.72;;;;;;;15.76;47.48;100413.19;4957773;29;20034;-91
2022/10/29 09:25:48;;;;;;;5.63;2.67;;;;;;;15.98;47.88;100425.56;4924471;29;20028;-91
2022/10/29 09:28:44;;;;;;;6.95;3.03;;;;;;;16.22;47.37;100447.47;4908863;29;20031;-91
2022/10/29 09:31:38;;;;;;;7.15;3.03;;;;;;;16.30;47.22;100439.56;4949998;29;20102;-95
2022/10/29 09:34:09;;;;;;;4.70;2.60;;;;;;;16.28;46.71;100409.13;4920800;29;20023;-91
2022/10/29 09:36:35;;;;;;;5.70;2.70;;;;;;;16.39;47.04;100407.16;4905950;29;20076;-91
2022/10/29 09:39:12;;;;;;;4.18;2.45;;;;;;;16.41;46.66;100391.38;4907814;29;20072;-91
2022/10/29 09:41:38;;;;;;;4.53;2.30;;;;;;;16.59;46.21;100395.34;4917235;29;20091;-92
2022/10/29 09:44:15;;;;;;;4.50;2.17;;;;;;;16.74;46.66;100395.19;4910529;29;20047;-92
2022/10/29 09:47:13;;;;;;;3.45;2.25;;;;;;;16.89;44.84;100401.66;4903619;29;20114;-91
2022/10/29 09:50:04;;;;;;;3.70;2.30;;;;;;;16.91;44.96;100373.09;4938012;29;20035;-92
2022/10/29 09:52:31;;;;;;;3.33;2.20;;;;;;;17.03;45.02;100399.88;4924966;29;20082;-92
2022/10/29 09:54:56;;;;;;;6.47;2.63;;;;;;;16.99;44.82;100376.28;4924370;29;20078;-91
2022/10/29 09:57:28;;;;;;;3.10;1.92;;;;;;;17.09;44.57;100374.25;4923408;29;20027;-91
2022/10/29 10:00:01;;;;;;;4.13;2.22;;;;;;;17.20;44.09;100374.16;4923912;29;20178;-91
2022/10/29 10:02:28;;;;;;;3.97;2.15;;;;;;;17.31;44.42;100368.31;4922639;29;20039;-91
2022/10/29 10:04:55;;;;;;;4.88;2.40;;;;;;;17.45;43.60;100375.78;4928394;29;20051;-91
2022/10/29 10:07:21;;;;;;;3.95;2.03;;;;;;;17.44;42.99;100355.94;4905297;29;20039;-91
2022/10/29 10:09:52;;;;;;;2.80;1.92;;;;;;;17.49;42.85;100355.03;4897806;29;20442;-92
2022/10/29 10:12:18;;;;;;;4.00;2.37;;;;;;;17.54;42.89;100350.34;4918799;29;20035;-91
2022/10/29 10:14:45;;;;;;;5.57;2.35;;;;;;;17.55;43.21;100343.78;4920218;29;20099;-91
2022/10/29 10:17:10;;;;;;;6.45;2.17;;;;;;;17.61;43.07;100347.28;4920019;29;20035;-89
2022/10/29 10:19:42;;;;;;;3.08;2.08;;;;;;;17.61;42.62;100335.56;4936339;29;20111;-91
2022/10/29 10:22:16;;;;;;;3.78;1.95;;;;;;;17.63;42.35;100325.19;4935583;29;20118;-91
2022/10/29 10:24:42;;;;;;;2.95;1.90;;;;;;;17.72;41.07;100328.88;4934996;29;20051;-91
2022/10/29 10:27:17;;;;;;;5.38;2.30;;;;;;;17.97;41.26;100349.56;4922174;29;20039;-91
2022/10/29 10:29:42;;;;;;;5.38;2.38;;;;;;;17.88;41.78;100324.09;4948977;29;20185;-91
2022/10/29 10:32:15;;;;;;;3.03;2.00;;;;;;;18.01;41.40;100327.97;4899379;29;20153;-91
2022/10/29 10:34:40;;;;;;;8.90;3.20;;;;;;;18.02;41.85;100326.91;4925190;29;20031;-96
2022/10/29 10:37:09;;;;;;;8.25;3.92;;;;;;;18.17;41.57;100332.09;4928018;29;20026;-96
2022/10/29 10:39:38;;;;;;;4.60;1.98;;;;;;;18.17;41.15;100337.56;4958747;29;20114;-96
2022/10/29 10:42:18;;;;;;;5.88;2.95;;;;;;;18.06;41.58;100325.19;4942048;29;20082;-96
2022/10/29 10:44:51;;;;;;;4.28;2.35;;;;;;;18.09;41.47;100310.97;4912973;29;20054;-96
2022/10/29 10:47:16;;;;;;;5.75;2.50;;;;;;;18.12;40.97;100313.13;4911369;29;20494;-96
2022/10/29 10:49:42;;;;;;;6.57;2.03;;;;;;;18.16;40.40;100308.69;4927703;29;20030;-96
2022/10/29 10:52:23;;;;;;;6.43;2.17;;;;;;;18.13;40.84;100296.44;4911362;29;20038;-96
2022/10/29 10:54:58;;;;;;;5.25;2.42;;;;;;;18.17;40.89;100305.66;4928510;29;20070;-96
2022/10/29 10:57:30;;;;;;;4.50;2.22;;;;;;;18.25;40.34;100303.38;4906450;29;20031;-91
2022/10/29 11:00:08;;;;;;;4.55;2.33;;;;;;;18.24;40.51;100296.28;4907399;29;20054;-91
2022/10/29 11:02:52;;;;;;;3.08;1.90;;;;;;;18.40;40.18;100314.03;4922743;29;20065;-92
2022/10/29 11:05:28;;;;;;;6.78;4.35;;;;;;;18.37;40.14;100299.06;4954776;29;20382;-91
2022/10/29 11:08:08;;;;;;;7.50;2.80;;;;;;;18.44;39.95;100312.31;4913352;29;20095;-91
2022/10/29 11:10:38;;;;;;;2.58;1.90;;;;;;;18.41;38.92;100288.38;4946188;29;20034;-91
2022/10/29 11:13:05;;;;;;;3.05;2.13;;;;;;;18.54;39.12;100284.06;4912816;29;20035;-91
2022/10/29 11:15:40;;;;;;;4.07;2.05;;;;;;;18.53;38.68;100285.16;4891663;29;20035;-91
2022/10/29 11:19:01;;;;;;;4.05;2.30;;;;;;;18.62;38.46;100280.66;4895709;29;20125;-92
2022/10/29 11:21:34;;;;;;;5.13;2.63;;;;;;;18.64;38.05;100278.44;4898094;29;20065;-94
2022/10/29 11:24:19;;;;;;;5.28;1.92;;;;;;;18.74;38.11;100280.19;4906911;29;20031;-95
2022/10/29 11:26:54;;;;;;;4.15;2.10;;;;;;;18.82;37.88;100281.44;4890524;29;20122;-96
2022/10/29 11:29:48;;;;;;;3.40;1.98;;;;;;;18.80;37.21;100272.72;4891348;29;20130;-96
2022/10/29 11:32:29;;;;;;;5.70;1.90;;;;;;;18.82;37.33;100262.31;4890987;29;20127;-95
2022/10/29 11:35:08;;;;;;;6.40;1.77;;;;;;;18.82;37.25;100259.59;4891140;29;20027;-96
2022/10/29 11:37:43;;;;;;;3.47;1.88;;;;;;;18.89;36.63;100268.22;4889448;29;20043;-93
2022/10/29 11:40:23;;;;;;;7.60;1.88;;;;;;;18.94;36.88;100276.28;4904810;29;20455;-95